Time;durP1;ratioP1;P1;durP2;ratioP2;P2;SDS_P1;SDS_P2;PMS_P1;PMS_P2;Temp;Humidity;BMP_temperature;BMP_pressure;BME280_temperature;BME280_humidity;BME280_pressure;Samples;Min_cycle;Max_cycle;Signal;HPM_P1;HPM_P2
2022/09/20 00:01:22;;;;;;;5.73;2.20;;;8.10;99.90;;;;;;4952037;28;20197;-77
2022/09/20 00:03:50;;;;;;;7.60;2.40;;;8.10;99.90;;;;;;4951963;28;20170;-77
2022/09/20 00:06:18;;;;;;;12.53;2.90;;;8.10;99.90;;;;;;4951330;28;20206;-79
2022/09/20 00:08:45;;;;;;;9.70;2.23;;;8.10;99.90;;;;;;4952153;28;20177;-79
2022/09/20 00:11:19;;;;;;;8.20;2.30;;;8.10;99.90;;;;;;4951852;28;20189;-79
2022/09/20 00:13:47;;;;;;;9.57;2.47;;;8.20;99.90;;;;;;4951274;28;20178;-79
2022/09/20 00:16:16;;;;;;;10.33;2.37;;;8.20;99.90;;;;;;4951037;28;20202;-79
2022/09/20 00:18:42;;;;;;;10.60;2.20;;;8.20;99.90;;;;;;4951840;28;20185;-79
2022/09/20 00:21:15;;;;;;;11.63;2.73;;;8.20;99.90;;;;;;4951316;28;20190;-77
2022/09/20 00:23:40;;;;;;;11.83;3.33;;;8.20;99.90;;;;;;4951591;28;20177;-79
2022/09/20 00:26:06;;;;;;;9.97;2.70;;;8.30;99.90;;;;;;4950459;28;20205;-79
2022/09/20 00:28:33;;;;;;;9.73;2.80;;;8.30;99.90;;;;;;4951143;28;20253;-79
2022/09/20 00:30:59;;;;;;;9.73;2.93;;;8.40;99.90;;;;;;4950140;28;20189;-77
2022/09/20 00:35:06;;;;;;;11.73;2.40;;;8.40;99.90;;;;;;4951543;28;20221;-77
2022/09/20 00:36:10;;;;;;;9.33;3.07;;;8.30;99.90;;;;;;4950943;28;20257;-79
2022/09/20 00:38:36;;;;;;;12.07;2.90;;;8.30;99.90;;;;;;4951004;28;20237;-79
2022/09/20 00:41:01;;;;;;;10.27;2.83;;;8.30;99.90;;;;;;4950725;28;20597;-78
2022/09/20 00:43:37;;;;;;;10.70;2.90;;;8.30;99.90;;;;;;4951233;28;20899;-78
2022/09/20 00:46:04;;;;;;;14.93;2.37;;;8.30;99.90;;;;;;4950308;28;20221;-77
2022/09/20 00:48:32;;;;;;;9.53;3.03;;;8.30;99.90;;;;;;4950697;28;20200;-78
2022/09/20 00:51:09;;;;;;;10.10;3.00;;;8.30;99.90;;;;;;4949279;28;20241;-78
2022/09/20 00:53:39;;;;;;;8.43;2.67;;;8.20;99.90;;;;;;4950731;28;20225;-79
2022/09/20 00:56:16;;;;;;;12.33;2.67;;;8.20;99.90;;;;;;4951008;28;20217;-78
2022/09/20 00:59:03;;;;;;;8.70;3.43;;;8.30;99.90;;;;;;4951017;28;20185;-77
2022/09/20 01:01:28;;;;;;;10.60;3.07;;;8.10;99.90;;;;;;4949439;28;20182;-78
2022/09/20 01:03:54;;;;;;;9.37;3.40;;;8.00;99.90;;;;;;4950276;28;20186;-78
2022/09/20 01:06:20;;;;;;;9.30;3.50;;;8.00;99.90;;;;;;4950744;28;20205;-78
2022/09/20 01:08:49;;;;;;;13.03;3.80;;;8.00;99.90;;;;;;4948762;28;20632;-78
2022/09/20 01:11:15;;;;;;;13.20;3.50;;;8.10;99.90;;;;;;4949662;28;20190;-78
2022/09/20 01:13:41;;;;;;;11.33;3.50;;;8.20;99.90;;;;;;4950291;28;20189;-78
2022/09/20 01:16:07;;;;;;;9.33;2.83;;;8.30;99.90;;;;;;4948381;28;20205;-78
2022/09/20 01:18:35;;;;;;;6.00;3.33;;;8.40;99.90;;;;;;4948513;28;20268;-78
2022/09/20 01:21:01;;;;;;;8.90;3.43;;;8.30;99.90;;;;;;4949749;28;20280;-79
2022/09/20 01:23:52;;;;;;;8.73;3.03;;;8.40;99.90;;;;;;4947670;28;20280;-78
2022/09/20 01:26:48;;;;;;;9.43;3.10;;;8.50;99.90;;;;;;4949838;28;20208;-77
2022/09/20 01:29:28;;;;;;;9.77;2.73;;;8.60;99.90;;;;;;4950334;28;20189;-79
2022/09/20 01:31:59;;;;;;;7.73;2.40;;;8.70;99.90;;;;;;4948548;28;20209;-78
2022/09/20 01:34:36;;;;;;;7.20;3.10;;;8.80;99.90;;;;;;4948576;28;20174;-78
2022/09/20 01:37:31;;;;;;;13.13;3.00;;;8.80;99.90;;;;;;4950167;28;20684;-78
2022/09/20 01:40:12;;;;;;;8.87;2.60;;;8.90;99.90;;;;;;4949979;28;20546;-79
2022/09/20 01:42:47;;;;;;;10.60;3.10;;;8.90;99.90;;;;;;4964865;28;20184;-79
2022/09/20 01:45:26;;;;;;;13.27;3.57;;;9.00;99.90;;;;;;4949432;28;20190;-79
2022/09/20 01:48:06;;;;;;;8.70;2.57;;;9.00;99.90;;;;;;4950465;28;20193;-77
2022/09/20 01:50:47;;;;;;;9.40;3.70;;;9.00;99.90;;;;;;4964177;28;20196;-77
2022/09/20 01:53:56;;;;;;;8.90;2.80;;;9.10;99.90;;;;;;4949630;28;20679;-77
2022/09/20 01:57:02;;;;;;;8.93;2.53;;;9.20;99.90;;;;;;4949373;28;20573;-78
2022/09/20 01:59:49;;;;;;;11.67;2.53;;;9.10;99.90;;;;;;4948401;28;20181;-79
2022/09/20 02:02:39;;;;;;;9.83;3.10;;;9.10;99.90;;;;;;4949800;28;20232;-78
2022/09/20 02:05:40;;;;;;;14.33;3.10;;;9.20;99.90;;;;;;4947730;28;20190;-79
2022/09/20 02:08:37;;;;;;;12.00;3.10;;;9.30;99.90;;;;;;4945270;28;20190;-77
2022/09/20 02:11:15;;;;;;;11.57;3.30;;;9.30;99.90;;;;;;4949206;28;20244;-77
2022/09/20 02:14:04;;;;;;;7.20;2.70;;;9.30;99.90;;;;;;4949333;28;20185;-77
2022/09/20 02:16:39;;;;;;;12.67;3.10;;;9.30;99.90;;;;;;4949496;28;20748;-77
2022/09/20 02:19:31;;;;;;;14.27;3.70;;;9.30;99.90;;;;;;4949088;28;20660;-78
2022/09/20 02:22:27;;;;;;;10.33;4.13;;;9.40;99.90;;;;;;4949092;28;20181;-77
2022/09/20 02:25:05;;;;;;;10.00;3.63;;;9.40;99.90;;;;;;4949316;28;20196;-77
2022/09/20 02:28:02;;;;;;;9.47;4.00;;;9.40;99.90;;;;;;4947727;28;20273;-77
2022/09/20 02:30:42;;;;;;;10.17;3.67;;;9.50;99.90;;;;;;4948704;28;20186;-79
2022/09/20 02:33:19;;;;;;;9.00;4.23;;;9.60;99.90;;;;;;4947822;28;20213;-78
2022/09/20 02:36:29;;;;;;;7.93;3.83;;;9.50;99.90;;;;;;4949281;28;20308;-77
2022/09/20 02:39:10;;;;;;;9.73;3.80;;;9.50;99.90;;;;;;4949777;28;20252;-79
2022/09/20 02:41:55;;;;;;;11.73;3.97;;;9.50;99.90;;;;;;4947824;28;20181;-77
2022/09/20 02:44:46;;;;;;;9.27;3.37;;;9.50;99.90;;;;;;4948701;28;20186;-79
2022/09/20 02:47:40;;;;;;;9.30;3.90;;;9.50;99.90;;;;;;4949789;28;20257;-78
2022/09/20 02:50:22;;;;;;;11.27;3.93;;;9.50;99.90;;;;;;4941973;28;20202;-79
2022/09/20 02:53:15;;;;;;;13.43;4.50;;;9.50;99.90;;;;;;4952364;28;20613;-78
2022/09/20 02:56:07;;;;;;;11.77;4.70;;;9.60;99.90;;;;;;4951870;28;20296;-78
2022/09/20 02:59:04;;;;;;;13.30;5.37;;;9.60;99.90;;;;;;4952581;28;20670;-77
2022/09/20 03:01:59;;;;;;;9.13;5.23;;;9.60;99.90;;;;;;4952928;28;20643;-78
2022/09/20 03:04:33;;;;;;;11.73;5.33;;;9.60;99.90;;;;;;4951877;28;20288;-77
2022/09/20 03:07:11;;;;;;;10.77;5.70;;;9.60;99.90;;;;;;4952298;28;20197;-78
2022/09/20 03:10:15;;;;;;;12.87;6.23;;;9.60;99.90;;;;;;4952295;28;20260;-79
2022/09/20 03:13:13;;;;;;;11.97;5.53;;;9.60;99.90;;;;;;4952227;28;20216;-78
2022/09/20 03:16:00;;;;;;;13.60;6.00;;;9.60;99.90;;;;;;4952073;28;20555;-78
2022/09/20 03:18:44;;;;;;;12.33;6.73;;;9.60;99.90;;;;;;4951988;28;20173;-78
2022/09/20 03:21:28;;;;;;;14.77;6.50;;;9.60;99.90;;;;;;4950784;28;20225;-77
2022/09/20 03:24:32;;;;;;;17.07;6.30;;;9.60;99.90;;;;;;4951869;28;20182;-78
2022/09/20 03:27:25;;;;;;;12.63;6.10;;;9.60;99.90;;;;;;4951582;28;20208;-78
2022/09/20 03:30:19;;;;;;;17.07;6.50;;;9.60;99.90;;;;;;4951621;28;20217;-79
2022/09/20 03:33:09;;;;;;;11.70;6.70;;;9.60;99.90;;;;;;4966633;28;20288;-78
2022/09/20 03:36:02;;;;;;;13.63;7.30;;;9.60;99.90;;;;;;4951858;28;20216;-79
2022/09/20 03:38:49;;;;;;;20.47;8.90;;;9.60;99.90;;;;;;4950772;28;20182;-77
2022/09/20 03:41:37;;;;;;;17.97;9.40;;;9.70;99.90;;;;;;4950461;28;20189;-79
2022/09/20 03:44:30;;;;;;;15.73;8.97;;;9.70;99.90;;;;;;4950649;28;20543;-78
2022/09/20 03:47:18;;;;;;;16.83;9.83;;;9.60;99.90;;;;;;4951646;28;20228;-78
2022/09/20 03:49:56;;;;;;;20.47;10.30;;;9.60;99.90;;;;;;4966037;28;20279;-78
2022/09/20 03:52:58;;;;;;;19.63;11.53;;;9.70;99.90;;;;;;4951384;28;20502;-77
2022/09/20 03:55:37;;;;;;;18.10;11.47;;;9.70;99.90;;;;;;4951150;28;20184;-78
2022/09/20 03:58:18;;;;;;;21.17;12.23;;;9.60;99.90;;;;;;4951392;28;20686;-77
2022/09/20 04:00:59;;;;;;;26.07;13.73;;;9.70;99.90;;;;;;4951168;28;20196;-77
2022/09/20 04:03:37;;;;;;;23.50;13.53;;;9.60;99.90;;;;;;4950794;28;20196;-77
2022/09/20 04:06:20;;;;;;;24.30;16.77;;;9.60;99.90;;;;;;4950824;28;20292;-79
2022/09/20 04:09:13;;;;;;;28.37;18.47;;;9.70;99.90;;;;;;4950942;28;20253;-79
2022/09/20 04:12:10;;;;;;;36.53;21.27;;;9.70;99.90;;;;;;4965281;28;20198;-78
2022/09/20 04:15:11;;;;;;;40.43;22.27;;;9.70;99.90;;;;;;4942921;28;20190;-77
2022/09/20 04:17:54;;;;;;;50.63;25.00;;;9.60;99.90;;;;;;4931990;28;20188;-78
2022/09/20 04:20:38;;;;;;;75.07;37.43;;;9.60;99.90;;;;;;4948470;28;20183;-78
2022/09/20 04:23:34;;;;;;;53.30;28.87;;;9.60;99.90;;;;;;4949642;28;20186;-79
2022/09/20 04:26:01;;;;;;;51.23;30.40;;;9.60;99.90;;;;;;4950004;28;20206;-79
2022/09/20 04:28:46;;;;;;;42.63;24.63;;;9.70;99.90;;;;;;4950798;28;20260;-79
2022/09/20 04:31:36;;;;;;;57.73;32.30;;;9.60;99.90;;;;;;4951181;28;20260;-78
2022/09/20 04:34:07;;;;;;;39.07;24.73;;;9.60;99.90;;;;;;4951218;28;20170;-77
2022/09/20 04:36:56;;;;;;;38.87;22.73;;;9.70;99.90;;;;;;4950832;28;20201;-77
2022/09/20 04:39:46;;;;;;;28.97;20.23;;;9.60;99.90;;;;;;4951200;28;20217;-78
2022/09/20 04:42:53;;;;;;;28.73;18.63;;;9.60;99.90;;;;;;4950634;28;20197;-77
2022/09/20 04:46:01;;;;;;;26.80;16.87;;;9.60;99.90;;;;;;4944907;28;20201;-78
2022/09/20 04:48:38;;;;;;;23.37;14.30;;;9.70;99.90;;;;;;4949422;28;20702;-77
2022/09/20 04:51:16;;;;;;;21.43;14.37;;;9.70;99.90;;;;;;4951096;28;20561;-79
2022/09/20 04:54:02;;;;;;;27.20;14.80;;;9.60;99.90;;;;;;4950958;28;20189;-78
2022/09/20 04:56:48;;;;;;;23.90;15.53;;;9.70;99.90;;;;;;4950130;28;20208;-78
2022/09/20 04:59:33;;;;;;;23.10;14.77;;;9.70;99.90;;;;;;4950656;28;20181;-79
2022/09/20 05:02:13;;;;;;;25.87;16.80;;;9.70;99.90;;;;;;4950264;28;20208;-78
2022/09/20 05:05:14;;;;;;;25.77;16.00;;;9.60;99.90;;;;;;4950457;28;20185;-79
2022/09/20 05:07:48;;;;;;;38.50;16.60;;;9.70;99.90;;;;;;4950910;28;20188;-79
2022/09/20 05:10:14;;;;;;;25.97;15.50;;;9.70;99.90;;;;;;4949281;28;20198;-79
2022/09/20 05:13:05;;;;;;;22.73;15.20;;;9.70;99.90;;;;;;4949764;28;20288;-77
2022/09/20 05:15:42;;;;;;;23.83;15.40;;;9.70;99.90;;;;;;4930428;28;20706;-79
2022/09/20 05:18:26;;;;;;;25.80;15.00;;;9.70;99.90;;;;;;4949396;28;20185;-79
2022/09/20 05:21:04;;;;;;;23.20;14.47;;;9.70;99.90;;;;;;4950150;28;20249;-79
2022/09/20 05:23:57;;;;;;;24.23;14.07;;;9.70;99.90;;;;;;4949789;28;20204;-77
2022/09/20 05:26:37;;;;;;;21.97;14.23;;;9.70;99.90;;;;;;4949627;28;20280;-79
2022/09/20 05:29:16;;;;;;;21.67;14.60;;;9.70;99.90;;;;;;4948948;28;20195;-78
2022/09/20 05:32:17;;;;;;;21.90;15.03;;;9.70;99.90;;;;;;4949355;28;20201;-78
2022/09/20 05:34:57;;;;;;;24.03;14.30;;;9.70;99.90;;;;;;4943750;28;20189;-79
2022/09/20 05:37:47;;;;;;;23.37;16.03;;;9.70;99.90;;;;;;4964535;28;20212;-77
2022/09/20 05:40:45;;;;;;;29.83;16.27;;;9.70;99.90;;;;;;4948402;28;20185;-79
2022/09/20 05:43:26;;;;;;;26.80;16.93;;;9.80;99.90;;;;;;4950376;28;20182;-79
2022/09/20 05:46:33;;;;;;;32.03;17.00;;;9.80;99.90;;;;;;4949460;28;20221;-78
2022/09/20 05:49:25;;;;;;;27.53;15.33;;;9.80;99.90;;;;;;4949809;28;20249;-78
2022/09/20 05:51:59;;;;;;;21.77;13.47;;;9.80;99.90;;;;;;4948285;28;20212;-78
2022/09/20 05:54:53;;;;;;;22.23;13.80;;;9.80;99.90;;;;;;4949499;28;20173;-77
2022/09/20 05:57:28;;;;;;;23.37;13.97;;;9.80;99.90;;;;;;4949615;28;20620;-77
2022/09/20 06:00:03;;;;;;;23.60;13.73;;;10.00;99.90;;;;;;4948498;28;20521;-78
2022/09/20 06:02:32;;;;;;;21.90;13.67;;;9.90;99.90;;;;;;4948437;28;20177;-78
2022/09/20 06:05:15;;;;;;;23.57;14.13;;;9.90;99.90;;;;;;4949484;28;20660;-79
2022/09/20 06:08:12;;;;;;;21.97;13.70;;;9.90;99.90;;;;;;4949395;28;20560;-79
2022/09/20 06:11:09;;;;;;;25.23;14.17;;;9.90;99.90;;;;;;4949379;28;20181;-79
2022/09/20 06:13:49;;;;;;;27.20;13.20;;;9.80;99.90;;;;;;4935415;28;20695;-78
2022/09/20 06:16:46;;;;;;;21.03;13.30;;;9.90;99.90;;;;;;4949164;28;20251;-80
2022/09/20 06:19:41;;;;;;;23.23;14.23;;;10.00;99.90;;;;;;4949564;28;20188;-78
2022/09/20 06:22:42;;;;;;;26.63;14.60;;;9.80;99.90;;;;;;4949885;28;20656;-79
2022/09/20 06:25:07;;;;;;;25.67;15.30;;;10.10;99.90;;;;;;4948029;28;20229;-79
2022/09/20 06:27:53;;;;;;;30.40;16.30;;;10.10;99.90;;;;;;4953240;28;20189;-79
2022/09/20 06:30:35;;;;;;;24.93;14.33;;;10.20;99.90;;;;;;4951713;28;20189;-79
2022/09/20 06:33:14;;;;;;;26.13;16.00;;;10.20;99.90;;;;;;4951646;28;20292;-77
2022/09/20 06:35:45;;;;;;;28.43;15.27;;;10.30;99.90;;;;;;4952772;28;20193;-79
2022/09/20 06:41:48;;;;;;;26.20;15.67;;;10.30;99.90;;;;;;4911868;29;20242;-77
2022/09/20 06:44:14;;;;;;;27.07;14.23;;;10.50;99.90;;;;;;4949444;28;20205;-78
2022/09/20 06:46:40;;;;;;;21.03;13.97;;;10.60;99.90;;;;;;4950962;28;20696;-79
2022/09/20 06:49:08;;;;;;;21.40;13.97;;;10.70;99.90;;;;;;4953139;28;20300;-78
2022/09/20 06:51:36;;;;;;;20.57;12.03;;;10.70;99.90;;;;;;4952032;28;20190;-80
2022/09/20 06:54:04;;;;;;;19.37;12.30;;;10.70;99.90;;;;;;4951977;28;20194;-80
2022/09/20 06:56:35;;;;;;;17.27;11.97;;;10.70;99.90;;;;;;4951077;28;20209;-78
2022/09/20 06:59:02;;;;;;;20.77;11.63;;;10.70;99.90;;;;;;4952702;28;20652;-77
2022/09/20 07:01:27;;;;;;;19.73;11.93;;;10.70;99.90;;;;;;4951331;28;20236;-78
2022/09/20 07:03:53;;;;;;;20.07;12.67;;;10.70;99.90;;;;;;4951993;28;20190;-79
2022/09/20 07:06:18;;;;;;;16.47;11.83;;;10.70;99.90;;;;;;4951997;28;20591;-77
2022/09/20 07:08:45;;;;;;;19.27;12.17;;;10.80;99.90;;;;;;4952130;28;20186;-78
2022/09/20 07:11:15;;;;;;;17.23;11.87;;;10.80;99.90;;;;;;4950829;28;20189;-77
2022/09/20 07:13:42;;;;;;;19.40;12.13;;;10.90;99.90;;;;;;4950323;28;20706;-79
2022/09/20 07:16:10;;;;;;;17.60;11.57;;;11.00;99.90;;;;;;4951321;28;20197;-79
2022/09/20 07:18:36;;;;;;;18.57;11.10;;;11.00;99.90;;;;;;4951684;28;20240;-79
2022/09/20 07:21:02;;;;;;;15.70;11.60;;;10.90;99.90;;;;;;4950772;28;20212;-78
2022/09/20 07:23:28;;;;;;;20.07;11.90;;;10.80;99.90;;;;;;4949479;28;20189;-78
2022/09/20 07:25:59;;;;;;;19.70;11.13;;;10.90;99.90;;;;;;4950845;28;20213;-80
2022/09/20 07:28:30;;;;;;;15.97;11.13;;;10.90;99.90;;;;;;4951848;28;20208;-79
2022/09/20 07:30:56;;;;;;;15.27;11.30;;;11.00;99.90;;;;;;4950529;28;20205;-80
2022/09/20 07:33:23;;;;;;;13.27;10.00;;;11.10;99.90;;;;;;4950651;28;20202;-79
2022/09/20 07:35:53;;;;;;;14.40;9.87;;;11.10;99.90;;;;;;4950568;28;20260;-80
2022/09/20 07:38:20;;;;;;;14.43;9.67;;;11.10;99.90;;;;;;4952190;28;20549;-79
2022/09/20 07:40:56;;;;;;;17.10;10.13;;;11.00;99.90;;;;;;4951816;28;20193;-79
2022/09/20 07:43:22;;;;;;;13.40;8.57;;;11.10;99.90;;;;;;4951839;28;20239;-79
2022/09/20 07:45:56;;;;;;;9.63;7.30;;;11.20;99.90;;;;;;4951016;28;20327;-80
2022/09/20 07:48:24;;;;;;;10.70;7.30;;;11.30;99.90;;;;;;4951811;28;20224;-78
2022/09/20 07:50:52;;;;;;;10.57;6.93;;;11.40;99.90;;;;;;4951285;28;20305;-78
2022/09/20 07:53:18;;;;;;;8.53;7.27;;;11.50;99.90;;;;;;4951996;28;20212;-77
2022/09/20 07:55:57;;;;;;;10.83;8.00;;;11.60;99.90;;;;;;4950903;28;20680;-77
2022/09/20 07:58:23;;;;;;;10.10;7.60;;;11.60;99.90;;;;;;4951226;28;20177;-78
2022/09/20 08:00:54;;;;;;;10.40;8.37;;;11.60;99.90;;;;;;4951443;28;20181;-77
2022/09/20 08:03:20;;;;;;;11.57;8.33;;;11.70;99.90;;;;;;4950647;28;20233;-78
2022/09/20 08:05:45;;;;;;;12.27;8.17;;;11.60;99.90;;;;;;4949459;28;20229;-79
2022/09/20 08:08:12;;;;;;;14.33;9.53;;;11.60;99.90;;;;;;4951644;28;20193;-77
2022/09/20 08:10:40;;;;;;;13.90;9.57;;;11.60;99.90;;;;;;4949728;28;20196;-80
2022/09/20 08:13:06;;;;;;;11.47;9.63;;;11.60;99.90;;;;;;4951677;28;20241;-78
2022/09/20 08:15:32;;;;;;;10.07;7.90;;;11.70;99.90;;;;;;4950360;28;20209;-77
2022/09/20 08:17:57;;;;;;;12.27;7.90;;;11.60;99.90;;;;;;4950889;28;20359;-78
2022/09/20 08:20:23;;;;;;;10.53;7.53;;;11.70;99.90;;;;;;4950143;28;20212;-78
2022/09/20 08:22:48;;;;;;;12.13;7.47;;;11.70;99.90;;;;;;4949990;28;20208;-79
2022/09/20 08:25:16;;;;;;;7.90;6.43;;;11.70;99.90;;;;;;4950175;28;20205;-79
2022/09/20 08:27:42;;;;;;;9.90;7.03;;;11.70;99.90;;;;;;4950370;28;20166;-80
2022/09/20 08:30:09;;;;;;;11.33;7.20;;;11.70;99.90;;;;;;4950728;28;20566;-79
2022/09/20 08:32:37;;;;;;;10.93;6.67;;;11.80;99.90;;;;;;4949218;28;20209;-77
2022/09/20 08:35:03;;;;;;;8.33;6.40;;;11.80;99.90;;;;;;4950151;28;20249;-79
2022/09/20 08:37:29;;;;;;;7.37;5.93;;;11.90;99.90;;;;;;4947832;28;20201;-79
2022/09/20 08:39:54;;;;;;;5.93;5.00;;;12.00;99.90;;;;;;4947873;28;20188;-78
2022/09/20 08:42:32;;;;;;;5.53;4.93;;;12.00;99.90;;;;;;4945816;28;20213;-79
2022/09/20 08:45:05;;;;;;;6.57;4.70;;;11.90;99.90;;;;;;4946286;28;20465;-79
2022/09/20 08:47:34;;;;;;;5.60;5.00;;;12.00;99.90;;;;;;4946661;28;20221;-78
2022/09/20 08:50:04;;;;;;;5.18;4.55;;;12.10;99.90;;;;;;4947220;28;20185;-79
2022/09/20 08:52:39;;;;;;;4.83;4.27;;;12.20;99.90;;;;;;4946807;28;20202;-79
2022/09/20 08:55:26;;;;;;;6.07;4.73;;;12.30;99.90;;;;;;4945853;28;20220;-79
2022/09/20 08:57:57;;;;;;;5.68;4.38;;;12.20;99.90;;;;;;4946651;28;20185;-78
2022/09/20 09:00:28;;;;;;;5.97;4.82;;;12.30;99.90;;;;;;4946830;28;20184;-78
2022/09/20 09:02:56;;;;;;;5.93;5.30;;;12.30;99.90;;;;;;4947345;28;20186;-79
2022/09/20 09:05:32;;;;;;;5.88;4.72;;;12.40;99.90;;;;;;4945146;28;20715;-78
2022/09/20 09:08:15;;;;;;;5.30;4.80;;;12.60;99.90;;;;;;4945074;28;20189;-80
2022/09/20 09:10:46;;;;;;;5.18;4.60;;;12.90;99.90;;;;;;4946051;28;20181;-79
2022/09/20 09:13:25;;;;;;;4.95;4.50;;;13.10;99.90;;;;;;4946989;28;20206;-77
2022/09/20 09:15:56;;;;;;;5.43;4.53;;;13.20;99.90;;;;;;4946243;28;20311;-79
2022/09/20 09:18:30;;;;;;;6.63;4.35;;;13.10;99.90;;;;;;4947052;28;20680;-79
2022/09/20 09:20:58;;;;;;;5.18;4.68;;;12.90;99.90;;;;;;4946337;28;20184;-78
2022/09/20 09:23:26;;;;;;;6.22;5.07;;;12.90;99.90;;;;;;4961424;28;20185;-79
2022/09/20 09:25:55;;;;;;;5.35;4.85;;;13.00;99.90;;;;;;4945214;28;20481;-78
2022/09/20 09:28:25;;;;;;;7.60;5.10;;;13.10;99.90;;;;;;4946432;28;20277;-78
2022/09/20 09:30:51;;;;;;;11.00;7.60;;;13.20;99.90;;;;;;4946199;28;20194;-78
2022/09/20 09:33:46;;;;;;;8.27;6.90;;;13.40;99.90;;;;;;4944909;28;20720;-78
2022/09/20 09:36:21;;;;;;;16.75;10.85;;;13.50;99.90;;;;;;4945280;28;20379;-79
2022/09/20 09:38:47;;;;;;;12.10;8.57;;;13.70;99.90;;;;;;4946346;28;20674;-79
2022/09/20 09:41:29;;;;;;;11.02;7.22;;;13.80;99.60;;;;;;4944954;28;20220;-78
2022/09/20 09:44:05;;;;;;;5.60;4.85;;;13.90;99.90;;;;;;4946254;28;20192;-78
2022/09/20 09:46:33;;;;;;;5.80;4.95;;;13.90;85.10;;;;;;4945595;28;20391;-79
2022/09/20 09:49:24;;;;;;;5.20;4.70;;;13.70;88.40;;;;;;4945343;28;20201;-78
2022/09/20 09:52:13;;;;;;;5.07;4.30;;;13.50;97.80;;;;;;4945595;28;20220;-78
2022/09/20 09:54:50;;;;;;;7.20;4.70;;;13.50;99.90;;;;;;4946344;28;20190;-79
2022/09/20 09:57:38;;;;;;;5.03;4.53;;;13.40;99.30;;;;;;4946101;28;20217;-79
2022/09/20 10:00:15;;;;;;;5.65;4.75;;;13.30;94.50;;;;;;4946127;28;20181;-79
2022/09/20 10:03:10;;;;;;;5.25;4.70;;;13.40;99.90;;;;;;4945735;28;20212;-79
2022/09/20 10:06:05;;;;;;;6.00;4.25;;;13.60;99.70;;;;;;4944150;28;20695;-80
2022/09/20 10:08:41;;;;;;;4.88;4.38;;;13.80;83.20;;;;;;4942958;28;20208;-77
2022/09/20 10:11:20;;;;;;;4.43;3.60;;;13.90;97.60;;;;;;4945481;28;20185;-78
2022/09/20 10:14:05;;;;;;;5.72;3.55;;;13.60;47.20;;;;;;4944918;28;20205;-78
2022/09/20 10:16:49;;;;;;;5.13;3.25;;;13.50;64.20;;;;;;4946133;28;20198;-80
2022/09/20 10:19:26;;;;;;;6.30;3.30;;;13.40;38.80;;;;;;4946326;28;20265;-79
2022/09/20 10:22:07;;;;;;;4.03;2.88;;;13.20;86.00;;;;;;4944975;28;20196;-80
2022/09/20 10:25:02;;;;;;;4.75;2.78;;;13.00;93.60;;;;;;4945544;28;20193;-79
2022/09/20 10:27:54;;;;;;;3.10;2.72;;;12.90;99.90;;;;;;4945497;28;20197;-80
2022/09/20 10:30:32;;;;;;;4.80;2.65;;;13.00;99.90;;;;;;4947464;28;20190;-77
2022/09/20 10:33:22;;;;;;;3.40;2.33;;;13.10;99.90;;;;;;4943611;28;20213;-80
2022/09/20 10:35:51;;;;;;;12.48;3.00;;;13.00;80.60;;;;;;4945794;28;20201;-80
2022/09/20 10:38:23;;;;;;;2.70;2.50;;;13.00;90.40;;;;;;4945737;28;20687;-78
2022/09/20 10:43:54;;;;;;;3.83;2.58;;;13.00;69.60;;;;;;4944580;28;20196;-78
2022/09/20 10:46:33;;;;;;;2.97;2.17;;;13.10;98.50;;;;;;4945012;28;20225;-78
2022/09/20 10:49:22;;;;;;;2.28;1.85;;;13.10;91.20;;;;;;4946787;28;20190;-78
2022/09/20 10:52:04;;;;;;;2.45;2.13;;;13.10;14.60;;;;;;4946504;28;20214;-78
2022/09/20 10:54:57;;;;;;;2.42;1.60;;;13.00;4.40;;;;;;4946487;28;20186;-81
2022/09/20 10:57:47;;;;;;;2.72;2.35;;;13.00;34.00;;;;;;4947637;28;20198;-78
2022/09/20 11:00:52;;;;;;;3.55;2.00;;;13.00;41.70;;;;;;4963103;28;20735;-78
2022/09/20 11:03:17;;;;;;;3.75;2.20;;;13.10;88.30;;;;;;4947866;28;20205;-80
2022/09/20 11:06:05;;;;;;;2.78;1.70;;;13.20;57.70;;;;;;4962742;28;20296;-80
2022/09/20 11:08:34;;;;;;;1.48;1.38;;;13.30;1.00;;;;;;4947395;28;20180;-79
2022/09/20 11:11:11;;;;;;;3.00;1.58;;;13.40;12.20;;;;;;4948576;28;20196;-79
2022/09/20 11:13:52;;;;;;;3.53;1.70;;;13.40;29.50;;;;;;4950934;28;20201;-78
2022/09/20 11:16:31;;;;;;;2.95;1.55;;;13.50;1.90;;;;;;4949711;28;20305;-78
2022/09/20 11:19:09;;;;;;;2.50;1.70;;;13.50;4.00;;;;;;4951082;28;20208;-78
2022/09/20 11:21:49;;;;;;;2.05;1.42;;;13.50;1.00;;;;;;4951626;28;20193;-79
2022/09/20 11:24:39;;;;;;;2.55;1.42;;;13.60;1.00;;;;;;4951398;28;20192;-79
2022/09/20 11:27:12;;;;;;;1.63;1.40;;;13.70;1.00;;;;;;4950985;28;20210;-79
2022/09/20 11:30:00;;;;;;;1.35;1.25;;;13.90;1.00;;;;;;4951119;28;20178;-78
2022/09/20 11:32:35;;;;;;;2.35;1.58;;;13.90;1.00;;;;;;4950753;28;20208;-79
2022/09/20 11:35:13;;;;;;;1.80;1.55;;;13.90;1.00;;;;;;4949313;28;20734;-80
2022/09/20 11:37:57;;;;;;;2.95;1.48;;;13.90;1.00;;;;;;4964043;28;20264;-80
2022/09/20 11:40:33;;;;;;;2.45;1.17;;;14.00;1.00;;;;;;4948594;28;20181;-79
2022/09/20 11:43:05;;;;;;;1.40;1.10;;;14.00;1.00;;;;;;4946892;28;20735;-78
2022/09/20 11:45:32;;;;;;;1.63;1.17;;;14.00;1.00;;;;;;4948219;28;20208;-80
2022/09/20 11:48:09;;;;;;;1.60;1.20;;;14.10;1.00;;;;;;4949572;28;21129;-79
2022/09/20 11:50:44;;;;;;;1.25;1.10;;;14.20;1.00;;;;;;4949530;28;20199;-80
2022/09/20 11:53:16;;;;;;;1.52;1.10;;;14.30;1.00;;;;;;4947275;28;20578;-79
2022/09/20 11:55:50;;;;;;;2.80;1.10;;;14.10;1.00;;;;;;4945027;28;20232;-79
2022/09/20 11:58:21;;;;;;;1.38;1.15;;;14.20;1.00;;;;;;4946353;28;20193;-80
2022/09/20 12:00:53;;;;;;;1.73;1.10;;;14.30;1.00;;;;;;4945226;28;20619;-79
2022/09/20 12:03:36;;;;;;;1.95;1.20;;;14.40;1.00;;;;;;4945301;28;20239;-78
2022/09/20 12:06:08;;;;;;;1.90;1.10;;;14.60;1.00;;;;;;4947517;28;20205;-80
2022/09/20 12:08:40;;;;;;;3.08;1.20;;;14.80;1.00;;;;;;4945881;28;20186;-80
2022/09/20 12:11:14;;;;;;;1.10;1.00;;;14.90;15.30;;;;;;4947315;28;20204;-79
2022/09/20 12:13:42;;;;;;;3.38;1.40;;;15.10;99.90;;;;;;4947531;28;20209;-78
2022/09/20 12:16:14;;;;;;;1.58;1.30;;;15.00;99.90;;;;;;4945785;28;20257;-81
2022/09/20 12:18:52;;;;;;;2.08;1.17;;;14.80;1.00;;;;;;4947433;28;20206;-78
2022/09/20 12:21:19;;;;;;;2.22;1.10;;;14.60;99.90;;;;;;4947308;28;20292;-78
2022/09/20 12:24:00;;;;;;;2.08;0.85;;;14.60;99.90;;;;;;4945788;28;20190;-78
2022/09/20 12:26:25;;;;;;;1.27;0.70;;;14.80;99.90;;;;;;4946848;28;20193;-78
2022/09/20 12:28:51;;;;;;;1.88;1.00;;;14.90;99.90;;;;;;4945979;28;20589;-79
2022/09/20 12:31:24;;;;;;;1.58;1.08;;;15.00;1.00;;;;;;4945848;28;20181;-79
2022/09/20 12:34:14;;;;;;;1.40;1.00;;;15.20;1.00;;;;;;4947072;28;20205;-79
2022/09/20 12:36:52;;;;;;;2.00;0.90;;;15.50;1.00;;;;;;4945570;28;20197;-79
2022/09/20 12:39:25;;;;;;;1.85;1.13;;;15.60;1.00;;;;;;4947467;28;20185;-78
2022/09/20 12:41:58;;;;;;;3.03;1.00;;;15.70;1.00;;;;;;4945304;28;20909;-79
2022/09/20 12:44:25;;;;;;;3.00;0.85;;;15.70;99.90;;;;;;4946507;28;20185;-80
2022/09/20 12:47:07;;;;;;;1.65;0.63;;;15.70;1.00;;;;;;4946806;28;20288;-78
2022/09/20 12:53:05;;;;;;;0.50;0.40;;;15.00;99.90;;;;;;4946439;28;20209;-78
2022/09/20 12:55:53;;;;;;;1.00;0.40;;;14.80;96.30;;;;;;4947192;28;20244;-80
2022/09/20 12:58:36;;;;;;;0.60;0.40;;;14.80;1.00;;;;;;4945348;28;20217;-80
2022/09/20 13:01:02;;;;;;;2.05;0.52;;;14.90;73.70;;;;;;4947499;28;20181;-81
2022/09/20 13:03:34;;;;;;;1.10;0.65;;;14.90;1.00;;;;;;4947545;28;20178;-79
2022/09/20 13:06:05;;;;;;;0.95;0.40;;;14.80;99.90;;;;;;4948272;28;20214;-78
2022/09/20 13:08:48;;;;;;;0.88;0.63;;;14.70;1.00;;;;;;4949410;28;20181;-80
2022/09/20 13:11:19;;;;;;;1.63;0.80;;;14.60;99.90;;;;;;4949357;28;20197;-80
2022/09/20 13:13:54;;;;;;;0.70;0.63;;;14.50;99.90;;;;;;4948603;28;20300;-79
2022/09/20 13:16:21;;;;;;;0.80;0.47;;;14.20;1.00;;;;;;4949571;28;20197;-80
2022/09/20 13:19:13;;;;;;;0.50;0.50;;;14.10;99.90;;;;;;4948864;28;20196;-80
2022/09/20 13:21:55;;;;;;;0.32;0.32;;;14.00;99.90;;;;;;4958147;28;20193;-78
2022/09/20 13:24:24;;;;;;;0.80;0.60;;;13.90;99.90;;;;;;4947553;28;20186;-81
2022/09/20 13:26:52;;;;;;;0.63;0.40;;;13.80;99.90;;;;;;4965325;28;20198;-80
2022/09/20 13:29:29;;;;;;;0.40;0.30;;;13.80;99.90;;;;;;4949211;28;20232;-79
2022/09/20 13:31:56;;;;;;;0.77;0.40;;;13.80;99.90;;;;;;4947448;28;20208;-79
2022/09/20 13:34:23;;;;;;;0.45;0.30;;;13.90;99.90;;;;;;4947293;28;21061;-80
2022/09/20 13:36:54;;;;;;;0.73;0.35;;;14.10;99.90;;;;;;4949163;28;20217;-80
2022/09/20 13:39:34;;;;;;;1.02;0.30;;;14.30;1.00;;;;;;4949520;28;20178;-81
2022/09/20 13:42:11;;;;;;;0.52;0.43;;;14.40;99.90;;;;;;4947860;28;20197;-80
2022/09/20 13:44:37;;;;;;;1.20;0.50;;;14.60;1.00;;;;;;4949174;28;20664;-78
2022/09/20 13:47:30;;;;;;;1.02;0.82;;;14.60;5.50;;;;;;4947040;28;20224;-80
2022/09/20 13:50:01;;;;;;;6.88;3.97;;;14.70;99.90;;;;;;4949351;28;20182;-80
2022/09/20 13:52:30;;;;;;;12.20;5.85;;;14.80;1.00;;;;;;4946887;28;20205;-81